createdAt,value
2022-11-22T00:01:28.473Z,12.57
2022-11-22T00:03:55.980Z,11.80
2022-11-22T00:06:23.094Z,15.52
2022-11-22T00:08:50.202Z,11.32
2022-11-22T00:11:17.303Z,13.63
2022-11-22T00:13:44.394Z,10.27
2022-11-22T00:16:11.500Z,11.48
2022-11-22T00:18:38.625Z,9.85
2022-11-22T00:21:07.088Z,11.43
2022-11-22T00:23:34.400Z,7.13
2022-11-22T00:26:01.492Z,15.93
2022-11-22T00:28:28.604Z,15.07
2022-11-22T00:30:55.743Z,13.32
2022-11-22T00:33:22.853Z,10.02
2022-11-22T00:35:49.934Z,11.45
2022-11-22T00:38:17.012Z,14.40
2022-11-22T00:40:44.227Z,11.65
2022-11-22T00:43:11.352Z,12.40
2022-11-22T00:45:38.532Z,13.90
2022-11-22T00:48:05.883Z,17.77
2022-11-22T00:50:32.974Z,10.15
2022-11-22T00:53:00.091Z,15.48
2022-11-22T00:55:27.139Z,12.13
2022-11-22T00:57:54.278Z,11.85
2022-11-22T01:00:21.393Z,14.20
2022-11-22T01:02:48.513Z,10.23
2022-11-22T01:05:17.855Z,9.02
2022-11-22T01:07:45.444Z,12.00
2022-11-22T01:10:12.630Z,15.93
2022-11-22T01:12:39.711Z,13.18
2022-11-22T01:15:07.105Z,11.77
2022-11-22T01:17:34.244Z,17.25
2022-11-22T01:20:01.314Z,14.20
2022-11-22T01:22:28.448Z,14.48
2022-11-22T01:24:55.563Z,10.15
2022-11-22T01:27:22.632Z,12.82
2022-11-22T01:29:49.731Z,10.30
2022-11-22T01:32:16.831Z,12.20
2022-11-22T01:34:43.979Z,9.05
2022-11-22T01:37:11.083Z,10.13
2022-11-22T01:39:38.173Z,15.88
2022-11-22T01:42:05.230Z,9.32
2022-11-22T01:44:32.751Z,12.68
2022-11-22T01:47:08.624Z,10.93
2022-11-22T01:49:45.978Z,11.50
2022-11-22T01:52:15.577Z,7.32
2022-11-22T01:54:44.294Z,10.05
2022-11-22T01:57:15.302Z,11.63
2022-11-22T01:59:45.174Z,8.65
2022-11-22T02:02:13.528Z,13.82
2022-11-22T02:04:41.168Z,13.45
2022-11-22T02:07:11.496Z,10.57
2022-11-22T02:09:40.119Z,13.77
2022-11-22T02:12:09.337Z,8.95
2022-11-22T02:14:37.235Z,10.65
2022-11-22T02:17:04.540Z,9.18
2022-11-22T02:19:39.940Z,10.75
2022-11-22T02:22:16.701Z,11.77
2022-11-22T02:24:47.479Z,10.98
2022-11-22T02:27:14.717Z,9.48
2022-11-22T02:29:42.820Z,9.35
2022-11-22T02:32:09.940Z,11.25
2022-11-22T02:34:44.079Z,11.85
2022-11-22T02:37:11.956Z,7.45
2022-11-22T02:39:39.114Z,5.80
2022-11-22T02:42:06.264Z,13.25
2022-11-22T02:44:33.728Z,12.07
2022-11-22T02:47:00.839Z,8.23
2022-11-22T02:49:28.348Z,11.40
2022-11-22T02:51:55.754Z,8.15
2022-11-22T02:54:22.859Z,10.15
2022-11-22T02:56:50.098Z,10.50
2022-11-22T02:59:17.239Z,13.02
2022-11-22T03:01:45.501Z,8.88
2022-11-22T03:04:24.605Z,10.00
2022-11-22T03:06:56.192Z,12.15
2022-11-22T03:09:24.511Z,13.35
2022-11-22T03:11:51.951Z,11.15
2022-11-22T03:14:19.164Z,10.90
2022-11-22T03:16:47.205Z,7.90
2022-11-22T03:19:14.491Z,10.75
2022-11-22T03:21:42.260Z,10.82
2022-11-22T03:24:10.005Z,11.15
2022-11-22T03:26:37.375Z,11.70
2022-11-22T03:29:04.815Z,7.68
2022-11-22T03:31:32.132Z,7.80
2022-11-22T03:33:59.280Z,10.32
2022-11-22T03:36:26.383Z,6.53
2022-11-22T03:38:53.483Z,7.05
2022-11-22T03:41:20.662Z,10.18
2022-11-22T03:43:48.806Z,6.70
2022-11-22T03:46:16.667Z,11.15
2022-11-22T03:48:43.758Z,9.82
2022-11-22T03:51:10.911Z,17.60
2022-11-22T03:53:38.335Z,9.82
2022-11-22T03:56:05.956Z,16.50
2022-11-22T03:58:33.546Z,12.25
2022-11-22T04:01:00.940Z,13.82
2022-11-22T04:03:28.054Z,12.43
2022-11-22T04:05:55.200Z,9.93
2022-11-22T04:08:22.328Z,9.57
2022-11-22T04:10:52.664Z,11.70
2022-11-22T04:13:20.298Z,11.32
2022-11-22T04:15:47.607Z,8.02
2022-11-22T04:18:15.167Z,11.25
2022-11-22T04:21:00.849Z,9.38
2022-11-22T04:23:33.591Z,12.90
2022-11-22T04:26:01.300Z,7.53
2022-11-22T04:29:01.407Z,11.50
2022-11-22T04:31:34.433Z,14.55
2022-11-22T04:34:01.537Z,9.48
2022-11-22T04:36:28.609Z,8.40
2022-11-22T04:38:55.676Z,8.65
2022-11-22T04:41:23.416Z,15.00
2022-11-22T04:44:09.273Z,10.35
2022-11-22T04:46:36.457Z,10.55
2022-11-22T04:49:03.551Z,11.10
2022-11-22T04:51:49.591Z,7.47
2022-11-22T04:54:16.709Z,12.40
2022-11-22T04:56:43.803Z,9.80
2022-11-22T04:59:10.920Z,9.10
2022-11-22T05:01:38.156Z,9.15
2022-11-22T05:04:05.325Z,11.05
2022-11-22T05:06:32.452Z,15.82
2022-11-22T05:08:59.596Z,13.50
2022-11-22T05:11:26.676Z,9.73
2022-11-22T05:13:53.791Z,11.68
2022-11-22T05:16:20.877Z,6.13
2022-11-22T05:18:59.252Z,8.98
2022-11-22T05:21:27.563Z,10.73
2022-11-22T05:23:54.706Z,5.63
2022-11-22T05:26:25.836Z,12.70
2022-11-22T05:28:53.292Z,7.82
2022-11-22T05:31:24.573Z,15.18
2022-11-22T05:33:52.438Z,11.88
2022-11-22T05:36:19.618Z,5.93
2022-11-22T05:38:47.126Z,7.72
2022-11-22T05:41:15.257Z,10.23
2022-11-22T05:43:42.529Z,11.98
2022-11-22T05:46:13.859Z,9.73
2022-11-22T05:48:42.231Z,5.47
2022-11-22T05:51:13.285Z,9.63
2022-11-22T05:53:40.755Z,12.65
2022-11-22T05:56:08.802Z,11.05
2022-11-22T05:58:35.982Z,8.20
2022-11-22T06:01:07.387Z,7.78
2022-11-22T06:03:34.882Z,11.77
2022-11-22T06:06:02.052Z,17.63
2022-11-22T06:08:30.530Z,9.55
2022-11-22T06:11:04.965Z,9.23
2022-11-22T06:13:36.404Z,10.13
2022-11-22T06:16:04.240Z,14.15
2022-11-22T06:18:31.484Z,10.50
2022-11-22T06:21:02.443Z,15.25
2022-11-22T06:23:29.606Z,11.15
2022-11-22T06:25:57.986Z,9.60
2022-11-22T06:28:25.291Z,11.15
2022-11-22T06:30:52.454Z,7.88
2022-11-22T06:33:19.627Z,13.15
2022-11-22T06:35:46.769Z,9.93
2022-11-22T06:38:13.886Z,12.88
2022-11-22T06:40:41.283Z,6.68
2022-11-22T06:43:08.474Z,7.50
2022-11-22T06:45:35.575Z,7.25
2022-11-22T06:48:02.719Z,8.32
2022-11-22T06:50:29.862Z,14.60
2022-11-22T06:52:56.936Z,9.13
2022-11-22T06:55:49.036Z,12.00
2022-11-22T06:58:11.092Z,7.75
2022-11-22T07:00:38.342Z,9.93
2022-11-22T07:03:05.451Z,11.23
2022-11-22T07:05:32.533Z,4.47
2022-11-22T07:08:06.674Z,12.38
2022-11-22T07:10:37.724Z,10.80
2022-11-22T07:13:04.875Z,9.52
2022-11-22T07:15:31.979Z,9.43
2022-11-22T07:17:59.087Z,12.65
2022-11-22T07:20:26.219Z,8.30
2022-11-22T07:22:53.328Z,8.73
2022-11-22T07:25:20.412Z,9.13
2022-11-22T07:27:47.527Z,8.70
2022-11-22T07:30:15.157Z,9.23
2022-11-22T07:32:42.277Z,6.60
2022-11-22T07:35:09.555Z,10.13
2022-11-22T07:37:36.711Z,7.30
2022-11-22T07:40:03.876Z,6.45
2022-11-22T07:42:32.252Z,10.55
2022-11-22T07:44:59.341Z,10.25
2022-11-22T07:47:26.448Z,7.80
2022-11-22T07:49:53.525Z,12.93
2022-11-22T07:52:20.592Z,8.65
2022-11-22T07:54:47.726Z,8.23
2022-11-22T07:57:14.839Z,12.30
2022-11-22T07:59:41.962Z,9.15
2022-11-22T08:02:11.680Z,8.38
2022-11-22T08:04:38.807Z,9.30
2022-11-22T08:07:05.994Z,9.05
2022-11-22T08:09:34.484Z,7.88
2022-11-22T08:12:01.612Z,16.40
2022-11-22T08:14:28.893Z,10.48
2022-11-22T08:16:56.367Z,12.65
2022-11-22T08:19:23.542Z,11.57
2022-11-22T08:21:55.335Z,8.88
2022-11-22T08:24:25.419Z,11.82
2022-11-22T08:26:52.519Z,8.38
2022-11-22T08:29:19.821Z,4.75
2022-11-22T08:31:47.257Z,8.27
2022-11-22T08:34:14.362Z,7.97
2022-11-22T08:36:41.505Z,9.40
2022-11-22T08:39:08.740Z,9.65
2022-11-22T08:41:35.887Z,13.32
2022-11-22T08:44:03.007Z,7.93
2022-11-22T08:46:30.100Z,14.52
2022-11-22T08:49:00.638Z,10.15
2022-11-22T08:51:27.754Z,11.70
2022-11-22T08:53:54.866Z,10.48
2022-11-22T08:56:22.091Z,10.10
2022-11-22T08:58:49.406Z,12.25
2022-11-22T09:01:18.131Z,10.10
2022-11-22T09:03:46.139Z,8.43
2022-11-22T09:11:51.638Z,7.93
2022-11-22T09:14:18.773Z,10.50
2022-11-22T09:16:45.973Z,6.00
2022-11-22T09:19:13.125Z,6.50
2022-11-22T09:21:48.536Z,9.07
2022-11-22T09:26:58.090Z,9.65
2022-11-22T09:29:26.830Z,8.13
2022-11-22T09:31:56.044Z,7.78
2022-11-22T09:34:23.646Z,8.38
2022-11-22T09:36:50.806Z,10.55
2022-11-22T09:39:17.942Z,5.72
2022-11-22T09:41:57.354Z,8.15
2022-11-22T09:44:56.942Z,15.38
2022-11-22T09:50:13.010Z,6.13
2022-11-22T09:52:43.520Z,8.20
2022-11-22T09:55:25.296Z,5.38
2022-11-22T09:58:03.120Z,9.35
2022-11-22T10:00:30.838Z,14.07
2022-11-22T10:03:09.865Z,10.43
2022-11-22T10:08:21.230Z,7.40
2022-11-22T10:10:50.736Z,6.43
2022-11-22T10:13:20.268Z,8.90
2022-11-22T10:15:53.232Z,9.32
2022-11-22T10:18:24.547Z,9.48
2022-11-22T10:20:51.740Z,5.40
2022-11-22T10:23:23.237Z,9.95
2022-11-22T10:26:00.961Z,7.55
2022-11-22T10:28:34.064Z,8.88
2022-11-22T10:31:17.555Z,8.70
2022-11-22T10:33:51.751Z,7.25
2022-11-22T10:36:21.850Z,8.70
2022-11-22T10:38:54.253Z,8.52
2022-11-22T10:41:24.113Z,7.38
2022-11-22T10:43:51.185Z,8.52
2022-11-22T10:46:37.226Z,6.95
2022-11-22T10:49:12.343Z,9.95
2022-11-22T10:51:54.520Z,6.85
2022-11-22T10:54:21.768Z,7.05
2022-11-22T10:57:01.189Z,6.63
2022-11-22T10:59:43.311Z,11.48
2022-11-22T11:02:13.335Z,7.15
2022-11-22T11:04:42.500Z,7.90
2022-11-22T11:07:15.601Z,9.90
2022-11-22T11:12:55.744Z,8.10
2022-11-22T11:15:41.667Z,6.93
2022-11-22T11:18:27.662Z,10.02
2022-11-22T11:20:54.836Z,5.50
2022-11-22T11:23:22.040Z,5.30
2022-11-22T11:25:51.131Z,5.20
2022-11-22T11:28:30.906Z,5.53
2022-11-22T11:31:08.527Z,4.13
2022-11-22T11:33:38.263Z,3.30
2022-11-22T11:36:24.854Z,6.35
2022-11-22T11:38:56.253Z,6.55
2022-11-22T11:41:37.307Z,6.50
2022-11-22T11:44:06.411Z,5.05
2022-11-22T11:46:42.820Z,5.13
2022-11-22T11:49:11.275Z,5.47
2022-11-22T11:51:40.167Z,5.18
2022-11-22T11:56:52.487Z,2.83
2022-11-22T11:59:23.638Z,5.63
2022-11-22T12:01:52.922Z,6.07
2022-11-22T12:04:27.113Z,3.85
2022-11-22T12:07:04.831Z,2.78
2022-11-22T12:09:38.611Z,3.42
2022-11-22T12:12:28.062Z,7.75
2022-11-22T12:15:50.729Z,3.70
2022-11-22T12:18:36.489Z,6.25
2022-11-22T12:21:22.492Z,3.53
2022-11-22T12:24:19.928Z,7.13
2022-11-22T12:26:49.448Z,2.67
2022-11-22T12:29:17.000Z,5.45
2022-11-22T12:31:54.819Z,2.85
2022-11-22T12:34:22.071Z,8.35
2022-11-22T12:37:02.465Z,3.95
2022-11-22T12:39:30.113Z,3.75
2022-11-22T12:42:06.210Z,5.63
2022-11-22T12:44:39.045Z,3.05
2022-11-22T12:47:15.118Z,3.45
2022-11-22T12:49:42.176Z,5.45
2022-11-22T12:52:10.026Z,8.63
2022-11-22T12:54:54.348Z,3.22
2022-11-22T12:57:35.299Z,5.82
2022-11-22T13:00:16.578Z,1.77
2022-11-22T13:03:03.385Z,6.53
2022-11-22T13:05:40.876Z,5.30
2022-11-22T13:08:18.595Z,2.72
2022-11-22T13:10:45.653Z,2.85
2022-11-22T13:13:32.981Z,3.88
2022-11-22T13:16:02.787Z,1.85
2022-11-22T13:18:35.048Z,3.72
2022-11-22T13:21:16.751Z,2.33
2022-11-22T13:23:56.765Z,3.22
2022-11-22T13:26:42.872Z,4.82
2022-11-22T13:29:30.305Z,5.45
2022-11-22T13:32:05.868Z,2.63
2022-11-22T13:34:34.727Z,5.80
2022-11-22T13:44:55.167Z,5.93
2022-11-22T13:47:25.090Z,5.85
2022-11-22T13:56:09.518Z,5.60
2022-11-22T13:58:40.423Z,5.53
2022-11-22T14:01:27.593Z,5.20
2022-11-22T14:06:23.632Z,5.00
2022-11-22T14:11:26.176Z,14.68
2022-11-22T14:14:02.850Z,3.17
2022-11-22T14:16:29.944Z,2.17
2022-11-22T14:19:20.183Z,4.72
2022-11-22T14:21:52.596Z,10.55
2022-11-22T14:24:25.783Z,2.70
2022-11-22T14:27:11.742Z,1.55
2022-11-22T14:29:53.359Z,3.15
2022-11-22T14:32:22.273Z,2.17
2022-11-22T14:35:04.678Z,5.88
2022-11-22T14:37:31.921Z,5.07
2022-11-22T14:40:03.307Z,3.72
2022-11-22T14:42:41.497Z,5.25
2022-11-22T14:45:11.334Z,4.85
2022-11-22T14:47:54.706Z,4.40
2022-11-22T14:50:21.921Z,7.28
2022-11-22T14:52:49.146Z,3.55
2022-11-22T14:55:18.097Z,2.28
2022-11-22T14:57:46.768Z,2.30
2022-11-22T15:00:14.169Z,2.33
2022-11-22T15:03:00.211Z,3.63
2022-11-22T15:09:20.998Z,4.65
2022-11-22T15:09:21.292Z,2.42
2022-11-22T15:11:31.834Z,1.27
2022-11-22T15:14:14.364Z,3.95
2022-11-22T15:57:27.041Z,3.35
2022-11-22T15:59:54.809Z,1.10
2022-11-22T16:02:30.044Z,3.50
2022-11-22T16:06:04.430Z,3.13
2022-11-22T16:07:49.153Z,2.17
2022-11-22T16:10:22.346Z,1.65
2022-11-22T16:12:50.283Z,1.67
2022-11-22T16:15:20.416Z,3.03
2022-11-22T16:17:55.032Z,2.85
2022-11-22T16:20:27.857Z,2.33
2022-11-22T16:23:05.871Z,4.55
2022-11-22T16:25:34.207Z,3.72
2022-11-22T16:28:03.871Z,3.65
2022-11-22T16:30:31.007Z,6.35
2022-11-22T16:32:58.916Z,7.32
2022-11-22T16:35:30.075Z,4.43
2022-11-22T16:38:45.074Z,7.40
2022-11-22T16:41:20.046Z,7.43
2022-11-22T16:43:50.994Z,10.40
2022-11-22T16:46:18.711Z,12.93
2022-11-22T16:48:45.929Z,13.18
2022-11-22T16:51:15.161Z,14.98
2022-11-22T16:53:46.061Z,22.25
2022-11-22T16:56:22.207Z,17.73
2022-11-22T16:58:49.799Z,14.63
2022-11-22T17:01:18.996Z,12.75
2022-11-22T17:03:47.366Z,19.33
2022-11-22T17:06:16.328Z,19.20
2022-11-22T17:11:11.437Z,18.73
2022-11-22T17:13:38.522Z,20.30
2022-11-22T17:16:05.881Z,18.13
2022-11-22T17:18:33.057Z,16.48
2022-11-22T17:21:00.245Z,15.73
2022-11-22T17:23:30.138Z,15.57
2022-11-22T17:25:57.285Z,16.33
2022-11-22T17:28:24.600Z,12.88
2022-11-22T17:30:52.218Z,11.60
2022-11-22T17:33:19.341Z,12.27
2022-11-22T17:35:46.468Z,7.13
2022-11-22T17:38:13.655Z,9.68
2022-11-22T17:40:40.832Z,7.75
2022-11-22T17:43:07.964Z,7.13
2022-11-22T17:45:42.426Z,10.48
2022-11-22T17:48:13.013Z,8.75
2022-11-22T17:50:40.401Z,6.75
2022-11-22T17:53:07.530Z,8.05
2022-11-22T17:55:48.333Z,6.93
2022-11-22T17:58:21.734Z,9.25
2022-11-22T18:00:48.856Z,13.70
2022-11-22T18:03:15.997Z,8.38
2022-11-22T18:05:43.161Z,9.90
2022-11-22T18:08:10.370Z,6.57
2022-11-22T18:10:39.060Z,7.60
2022-11-22T18:13:20.675Z,9.57
2022-11-22T18:15:52.192Z,8.23
2022-11-22T18:18:48.641Z,8.43
2022-11-22T18:21:11.400Z,9.52
2022-11-22T18:23:41.359Z,10.23
2022-11-22T18:29:32.514Z,7.20
2022-11-22T18:31:52.150Z,5.43
2022-11-22T18:34:19.681Z,7.38
2022-11-22T18:37:02.118Z,8.55
2022-11-22T18:39:35.031Z,9.57
2022-11-22T18:42:02.929Z,10.23
2022-11-22T18:44:30.251Z,10.60
2022-11-22T18:46:57.394Z,6.75
2022-11-22T18:49:24.509Z,9.00
2022-11-22T18:51:51.671Z,8.63
2022-11-22T18:54:19.777Z,7.07
2022-11-22T18:56:46.922Z,8.38
2022-11-22T18:59:14.141Z,5.85
2022-11-22T19:01:41.481Z,7.82
2022-11-22T19:04:09.985Z,5.43
2022-11-22T19:06:37.231Z,8.77
2022-11-22T19:09:04.419Z,7.25
2022-11-22T19:11:34.265Z,7.75
2022-11-22T19:14:01.829Z,7.30
2022-11-22T19:16:30.308Z,8.00
2022-11-22T19:18:58.118Z,9.55
2022-11-22T19:21:26.673Z,7.53
2022-11-22T19:23:53.853Z,5.35
2022-11-22T19:26:22.498Z,8.18
2022-11-22T19:28:50.504Z,6.28
2022-11-22T19:31:20.153Z,6.55
2022-11-22T19:33:47.412Z,9.45
2022-11-22T19:36:18.694Z,8.30
2022-11-22T19:38:46.206Z,5.55
2022-11-22T19:41:20.774Z,6.38
2022-11-22T19:43:48.638Z,8.30
2022-11-22T19:46:16.302Z,9.25
2022-11-22T19:48:46.997Z,8.57
2022-11-22T19:51:15.265Z,8.18
2022-11-22T19:53:42.720Z,12.93
2022-11-22T19:56:14.359Z,8.27
2022-11-22T19:58:42.073Z,8.02
2022-11-22T20:01:14.275Z,8.50
2022-11-22T20:03:42.400Z,9.63
2022-11-22T20:06:10.507Z,9.75
2022-11-22T20:08:38.119Z,10.30
2022-11-22T20:11:06.880Z,8.45
2022-11-22T20:13:37.965Z,11.10
2022-11-22T20:16:08.333Z,10.20
2022-11-22T20:18:35.490Z,5.43
2022-11-22T20:21:03.094Z,7.78
2022-11-22T20:23:30.866Z,11.57
2022-11-22T20:26:04.984Z,9.60
2022-11-22T20:28:32.301Z,12.75
2022-11-22T20:31:09.798Z,10.30
2022-11-22T20:33:37.973Z,10.63
2022-11-22T20:36:05.860Z,10.18
2022-11-22T20:38:34.086Z,11.60
2022-11-22T20:41:01.250Z,8.65
2022-11-22T20:43:28.876Z,11.30
2022-11-22T20:46:03.381Z,9.60
2022-11-22T20:48:31.676Z,9.02
2022-11-22T20:51:02.580Z,10.68
2022-11-22T20:53:29.758Z,9.15
2022-11-22T20:55:56.919Z,8.65
2022-11-22T20:58:24.694Z,12.65
2022-11-22T21:00:51.951Z,10.45
2022-11-22T21:03:19.318Z,14.65
2022-11-22T21:05:46.776Z,11.90
2022-11-22T21:08:13.951Z,9.73
2022-11-22T21:10:41.093Z,11.68
2022-11-22T21:13:08.296Z,11.27
2022-11-22T21:15:35.673Z,8.95
2022-11-22T21:18:24.319Z,10.35
2022-11-22T21:20:51.863Z,10.00
2022-11-22T21:23:18.968Z,12.13
2022-11-22T21:25:46.776Z,10.93
2022-11-22T21:28:13.921Z,11.93
2022-11-22T21:30:41.023Z,9.48
2022-11-22T21:33:08.178Z,10.63
2022-11-22T21:35:35.316Z,10.55
2022-11-22T21:38:02.457Z,11.55
2022-11-22T21:40:29.623Z,7.15
2022-11-22T21:42:56.830Z,10.93
2022-11-22T21:45:23.906Z,10.88
2022-11-22T21:47:51.500Z,9.35
2022-11-22T21:50:18.578Z,9.95
2022-11-22T21:52:45.710Z,9.70
2022-11-22T21:55:13.107Z,8.25
2022-11-22T21:57:40.199Z,7.10
2022-11-22T22:00:07.859Z,9.20
2022-11-22T22:02:35.663Z,9.23
2022-11-22T22:05:02.775Z,9.00
2022-11-22T22:07:51.570Z,7.60
2022-11-22T22:10:17.163Z,10.55
2022-11-22T22:12:44.293Z,7.22
2022-11-22T22:15:12.873Z,6.78
2022-11-22T22:17:39.998Z,4.72
2022-11-22T22:20:07.358Z,6.75
2022-11-22T22:22:40.308Z,8.25
2022-11-22T22:25:07.611Z,10.75
2022-11-22T22:27:34.715Z,11.68
2022-11-22T22:30:01.999Z,9.93
2022-11-22T22:32:29.181Z,8.95
2022-11-22T22:34:56.324Z,9.57
2022-11-22T22:37:23.457Z,8.88
2022-11-22T22:39:51.827Z,8.57
2022-11-22T22:42:19.208Z,11.88
2022-11-22T22:44:46.414Z,8.00
2022-11-22T22:47:14.011Z,6.13
2022-11-22T22:49:41.135Z,5.82
2022-11-22T22:52:08.218Z,9.15
2022-11-22T22:54:35.956Z,7.47
2022-11-22T22:57:03.541Z,9.70
2022-11-22T22:59:31.103Z,9.57
2022-11-22T23:01:58.415Z,9.00
2022-11-22T23:04:25.900Z,12.50
2022-11-22T23:06:53.039Z,11.75
2022-11-22T23:09:20.173Z,9.70
2022-11-22T23:12:06.164Z,9.07
2022-11-22T23:14:33.327Z,10.63
2022-11-22T23:17:00.433Z,8.75
2022-11-22T23:19:28.081Z,12.93
2022-11-22T23:21:55.561Z,11.80
2022-11-22T23:24:22.715Z,9.43
2022-11-22T23:26:49.920Z,11.13
2022-11-22T23:29:17.057Z,11.63
2022-11-22T23:31:44.231Z,14.20
2022-11-22T23:34:12.281Z,11.35
2022-11-22T23:36:41.203Z,15.38
2022-11-22T23:39:10.530Z,11.98
2022-11-22T23:41:37.720Z,10.15
2022-11-22T23:44:05.300Z,11.63
2022-11-22T23:46:32.591Z,13.40
2022-11-22T23:49:00.508Z,18.30
2022-11-22T23:51:28.639Z,11.65
2022-11-22T23:53:56.484Z,15.00
2022-11-22T23:56:23.851Z,16.15
2022-11-22T23:58:51.570Z,11.23
